sensor_id;sensor_type;location;lat;lon;timestamp;P1;durP1;ratioP1;P2;durP2;ratioP2
2161;SDS011;1087;50.226;8.682;2023-04-24T00:02:22;1.70;;;1.43;;
2161;SDS011;1087;50.226;8.682;2023-04-24T00:04:48;2.80;;;1.77;;
2161;SDS011;1087;50.226;8.682;2023-04-24T00:07:14;1.90;;;1.53;;
2161;SDS011;1087;50.226;8.682;2023-04-24T00:09:41;1.73;;;1.63;;
2161;SDS011;1087;50.226;8.682;2023-04-24T00:12:07;1.83;;;1.70;;
2161;SDS011;1087;50.226;8.682;2023-04-24T00:14:33;2.00;;;1.47;;
2161;SDS011;1087;50.226;8.682;2023-04-24T00:17:00;1.53;;;1.43;;
2161;SDS011;1087;50.226;8.682;2023-04-24T00:19:27;1.37;;;1.23;;
2161;SDS011;1087;50.226;8.682;2023-04-24T00:21:53;3.03;;;1.63;;
2161;SDS011;1087;50.226;8.682;2023-04-24T00:24:19;4.10;;;1.53;;
2161;SDS011;1087;50.226;8.682;2023-04-24T00:26:45;1.70;;;1.53;;
2161;SDS011;1087;50.226;8.682;2023-04-24T00:29:11;1.73;;;1.63;;
2161;SDS011;1087;50.226;8.682;2023-04-24T00:31:37;2.07;;;1.53;;
2161;SDS011;1087;50.226;8.682;2023-04-24T00:34:03;1.60;;;1.50;;
2161;SDS011;1087;50.226;8.682;2023-04-24T00:36:29;2.10;;;1.90;;
2161;SDS011;1087;50.226;8.682;2023-04-24T00:38:55;1.97;;;1.37;;
2161;SDS011;1087;50.226;8.682;2023-04-24T00:41:21;1.50;;;1.40;;
2161;SDS011;1087;50.226;8.682;2023-04-24T00:43:47;1.67;;;1.57;;
2161;SDS011;1087;50.226;8.682;2023-04-24T00:46:13;2.77;;;1.80;;
2161;SDS011;1087;50.226;8.682;2023-04-24T00:48:39;2.70;;;1.50;;
2161;SDS011;1087;50.226;8.682;2023-04-24T00:51:05;1.97;;;1.77;;
2161;SDS011;1087;50.226;8.682;2023-04-24T00:53:31;1.93;;;1.40;;
2161;SDS011;1087;50.226;8.682;2023-04-24T00:55:57;1.60;;;1.50;;
2161;SDS011;1087;50.226;8.682;2023-04-24T00:58:23;2.07;;;1.90;;
2161;SDS011;1087;50.226;8.682;2023-04-24T01:00:49;3.63;;;1.60;;
2161;SDS011;1087;50.226;8.682;2023-04-24T01:03:18;3.93;;;2.43;;
2161;SDS011;1087;50.226;8.682;2023-04-24T01:05:47;2.80;;;1.73;;
2161;SDS011;1087;50.226;8.682;2023-04-24T01:08:14;2.10;;;2.00;;
2161;SDS011;1087;50.226;8.682;2023-04-24T01:10:40;2.30;;;2.10;;
2161;SDS011;1087;50.226;8.682;2023-04-24T01:13:07;2.10;;;1.90;;
2161;SDS011;1087;50.226;8.682;2023-04-24T01:15:34;2.60;;;2.17;;
2161;SDS011;1087;50.226;8.682;2023-04-24T01:17:59;2.33;;;1.70;;
2161;SDS011;1087;50.226;8.682;2023-04-24T01:20:25;3.10;;;2.07;;
2161;SDS011;1087;50.226;8.682;2023-04-24T01:22:51;3.03;;;1.63;;
2161;SDS011;1087;50.226;8.682;2023-04-24T01:25:18;2.17;;;1.70;;
2161;SDS011;1087;50.226;8.682;2023-04-24T01:27:43;2.47;;;1.70;;
2161;SDS011;1087;50.226;8.682;2023-04-24T01:30:09;2.30;;;1.40;;
2161;SDS011;1087;50.226;8.682;2023-04-24T01:32:36;1.73;;;1.60;;
2161;SDS011;1087;50.226;8.682;2023-04-24T01:35:02;1.70;;;1.60;;
2161;SDS011;1087;50.226;8.682;2023-04-24T01:37:28;3.50;;;1.73;;
2161;SDS011;1087;50.226;8.682;2023-04-24T01:39:54;2.17;;;1.80;;
2161;SDS011;1087;50.226;8.682;2023-04-24T01:42:19;2.03;;;1.83;;
2161;SDS011;1087;50.226;8.682;2023-04-24T01:44:45;3.53;;;1.97;;
2161;SDS011;1087;50.226;8.682;2023-04-24T01:47:12;1.93;;;1.70;;
2161;SDS011;1087;50.226;8.682;2023-04-24T01:49:38;7.57;;;3.30;;
2161;SDS011;1087;50.226;8.682;2023-04-24T01:52:04;2.60;;;1.73;;
2161;SDS011;1087;50.226;8.682;2023-04-24T01:54:30;1.50;;;1.40;;
2161;SDS011;1087;50.226;8.682;2023-04-24T01:56:56;2.60;;;1.90;;
2161;SDS011;1087;50.226;8.682;2023-04-24T01:59:21;2.00;;;1.47;;
2161;SDS011;1087;50.226;8.682;2023-04-24T02:01:50;2.90;;;1.63;;
2161;SDS011;1087;50.226;8.682;2023-04-24T02:04:15;3.00;;;1.60;;
2161;SDS011;1087;50.226;8.682;2023-04-24T02:06:41;2.30;;;1.90;;
2161;SDS011;1087;50.226;8.682;2023-04-24T02:09:06;2.70;;;1.60;;
2161;SDS011;1087;50.226;8.682;2023-04-24T02:11:32;3.00;;;1.60;;
2161;SDS011;1087;50.226;8.682;2023-04-24T02:13:58;1.57;;;1.30;;
2161;SDS011;1087;50.226;8.682;2023-04-24T02:16:23;2.10;;;1.80;;
2161;SDS011;1087;50.226;8.682;2023-04-24T02:18:49;1.80;;;1.30;;
2161;SDS011;1087;50.226;8.682;2023-04-24T02:21:15;3.53;;;2.00;;
2161;SDS011;1087;50.226;8.682;2023-04-24T02:23:40;1.87;;;1.70;;
2161;SDS011;1087;50.226;8.682;2023-04-24T02:26:06;3.00;;;2.10;;
2161;SDS011;1087;50.226;8.682;2023-04-24T02:28:31;1.80;;;1.60;;
2161;SDS011;1087;50.226;8.682;2023-04-24T02:30:57;2.27;;;2.07;;
2161;SDS011;1087;50.226;8.682;2023-04-24T02:33:23;3.70;;;2.00;;
2161;SDS011;1087;50.226;8.682;2023-04-24T02:35:49;5.20;;;2.23;;
2161;SDS011;1087;50.226;8.682;2023-04-24T02:38:14;4.00;;;2.13;;
2161;SDS011;1087;50.226;8.682;2023-04-24T02:40:40;3.13;;;2.30;;
2161;SDS011;1087;50.226;8.682;2023-04-24T02:43:05;3.63;;;2.13;;
2161;SDS011;1087;50.226;8.682;2023-04-24T02:45:31;3.33;;;1.97;;
2161;SDS011;1087;50.226;8.682;2023-04-24T02:47:56;2.97;;;1.90;;
2161;SDS011;1087;50.226;8.682;2023-04-24T02:50:22;2.60;;;1.53;;
2161;SDS011;1087;50.226;8.682;2023-04-24T02:52:47;1.73;;;1.60;;
2161;SDS011;1087;50.226;8.682;2023-04-24T02:55:13;3.00;;;2.00;;
2161;SDS011;1087;50.226;8.682;2023-04-24T02:57:38;3.07;;;2.03;;
2161;SDS011;1087;50.226;8.682;2023-04-24T03:00:04;4.23;;;2.43;;
2161;SDS011;1087;50.226;8.682;2023-04-24T03:02:32;3.10;;;1.87;;
2161;SDS011;1087;50.226;8.682;2023-04-24T03:04:57;2.20;;;2.00;;
2161;SDS011;1087;50.226;8.682;2023-04-24T03:07:23;4.17;;;2.27;;
2161;SDS011;1087;50.226;8.682;2023-04-24T03:09:49;3.47;;;2.20;;
2161;SDS011;1087;50.226;8.682;2023-04-24T03:12:14;3.80;;;2.73;;
2161;SDS011;1087;50.226;8.682;2023-04-24T03:14:41;1.70;;;1.60;;
2161;SDS011;1087;50.226;8.682;2023-04-24T03:17:07;3.40;;;2.10;;
2161;SDS011;1087;50.226;8.682;2023-04-24T03:19:32;2.80;;;2.17;;
2161;SDS011;1087;50.226;8.682;2023-04-24T03:21:58;3.07;;;2.30;;
2161;SDS011;1087;50.226;8.682;2023-04-24T03:24:24;3.57;;;2.87;;
2161;SDS011;1087;50.226;8.682;2023-04-24T03:26:49;3.60;;;2.00;;
2161;SDS011;1087;50.226;8.682;2023-04-24T03:29:15;3.73;;;2.23;;
2161;SDS011;1087;50.226;8.682;2023-04-24T03:31:40;4.47;;;2.50;;
2161;SDS011;1087;50.226;8.682;2023-04-24T03:34:06;7.30;;;2.20;;
2161;SDS011;1087;50.226;8.682;2023-04-24T03:36:32;3.00;;;2.00;;
2161;SDS011;1087;50.226;8.682;2023-04-24T03:38:57;2.50;;;2.17;;
2161;SDS011;1087;50.226;8.682;2023-04-24T03:41:23;4.83;;;2.40;;
2161;SDS011;1087;50.226;8.682;2023-04-24T03:43:48;4.10;;;2.23;;
2161;SDS011;1087;50.226;8.682;2023-04-24T03:46:13;2.50;;;2.27;;
2161;SDS011;1087;50.226;8.682;2023-04-24T03:48:40;3.30;;;2.27;;
2161;SDS011;1087;50.226;8.682;2023-04-24T03:51:05;4.70;;;2.50;;
2161;SDS011;1087;50.226;8.682;2023-04-24T03:53:31;2.90;;;2.60;;
2161;SDS011;1087;50.226;8.682;2023-04-24T03:55:56;2.83;;;1.90;;
2161;SDS011;1087;50.226;8.682;2023-04-24T03:58:22;4.70;;;2.60;;
2161;SDS011;1087;50.226;8.682;2023-04-24T04:00:47;2.37;;;2.17;;
2161;SDS011;1087;50.226;8.682;2023-04-24T04:03:13;2.80;;;2.53;;
2161;SDS011;1087;50.226;8.682;2023-04-24T04:05:39;2.63;;;1.70;;
2161;SDS011;1087;50.226;8.682;2023-04-24T04:08:05;4.00;;;2.10;;
2161;SDS011;1087;50.226;8.682;2023-04-24T04:10:30;2.97;;;2.27;;
2161;SDS011;1087;50.226;8.682;2023-04-24T04:12:56;2.30;;;2.10;;
2161;SDS011;1087;50.226;8.682;2023-04-24T04:15:21;3.00;;;1.80;;
2161;SDS011;1087;50.226;8.682;2023-04-24T04:17:47;2.27;;;1.73;;
2161;SDS011;1087;50.226;8.682;2023-04-24T04:20:12;3.43;;;1.80;;
2161;SDS011;1087;50.226;8.682;2023-04-24T04:22:38;2.53;;;2.13;;
2161;SDS011;1087;50.226;8.682;2023-04-24T04:25:03;4.00;;;2.90;;
2161;SDS011;1087;50.226;8.682;2023-04-24T04:27:29;2.27;;;2.07;;
2161;SDS011;1087;50.226;8.682;2023-04-24T04:29:57;3.40;;;2.60;;
2161;SDS011;1087;50.226;8.682;2023-04-24T04:32:26;2.53;;;2.33;;
2161;SDS011;1087;50.226;8.682;2023-04-24T04:34:51;3.50;;;2.30;;
2161;SDS011;1087;50.226;8.682;2023-04-24T04:37:18;3.00;;;2.47;;
2161;SDS011;1087;50.226;8.682;2023-04-24T04:39:43;3.47;;;2.40;;
2161;SDS011;1087;50.226;8.682;2023-04-24T04:42:09;2.70;;;2.27;;
2161;SDS011;1087;50.226;8.682;2023-04-24T04:44:35;2.63;;;2.43;;
2161;SDS011;1087;50.226;8.682;2023-04-24T04:47:01;2.20;;;2.00;;
2161;SDS011;1087;50.226;8.682;2023-04-24T04:49:30;2.30;;;2.10;;
2161;SDS011;1087;50.226;8.682;2023-04-24T04:51:56;2.97;;;2.17;;
2161;SDS011;1087;50.226;8.682;2023-04-24T04:54:22;2.20;;;2.00;;
2161;SDS011;1087;50.226;8.682;2023-04-24T04:56:49;2.70;;;2.40;;
2161;SDS011;1087;50.226;8.682;2023-04-24T04:59:15;2.53;;;2.33;;
2161;SDS011;1087;50.226;8.682;2023-04-24T05:01:41;2.67;;;2.47;;
2161;SDS011;1087;50.226;8.682;2023-04-24T05:04:06;4.37;;;2.80;;
2161;SDS011;1087;50.226;8.682;2023-04-24T05:06:32;2.87;;;2.57;;
2161;SDS011;1087;50.226;8.682;2023-04-24T05:08:58;3.93;;;2.27;;
2161;SDS011;1087;50.226;8.682;2023-04-24T05:11:23;2.70;;;2.40;;
2161;SDS011;1087;50.226;8.682;2023-04-24T05:13:49;3.67;;;3.40;;
2161;SDS011;1087;50.226;8.682;2023-04-24T05:16:15;3.43;;;3.13;;
2161;SDS011;1087;50.226;8.682;2023-04-24T05:18:40;2.80;;;2.30;;
2161;SDS011;1087;50.226;8.682;2023-04-24T05:21:06;2.70;;;2.43;;
2161;SDS011;1087;50.226;8.682;2023-04-24T05:23:31;2.23;;;2.03;;
2161;SDS011;1087;50.226;8.682;2023-04-24T05:25:57;2.87;;;2.27;;
2161;SDS011;1087;50.226;8.682;2023-04-24T05:28:22;2.30;;;2.10;;
2161;SDS011;1087;50.226;8.682;2023-04-24T05:30:48;2.60;;;2.40;;
2161;SDS011;1087;50.226;8.682;2023-04-24T05:33:13;4.17;;;3.87;;
2161;SDS011;1087;50.226;8.682;2023-04-24T05:35:40;3.40;;;2.83;;
2161;SDS011;1087;50.226;8.682;2023-04-24T05:38:10;3.43;;;3.13;;
2161;SDS011;1087;50.226;8.682;2023-04-24T05:40:36;2.50;;;2.30;;
2161;SDS011;1087;50.226;8.682;2023-04-24T05:43:01;2.47;;;2.27;;
2161;SDS011;1087;50.226;8.682;2023-04-24T05:45:27;2.50;;;2.30;;
2161;SDS011;1087;50.226;8.682;2023-04-24T05:47:52;3.27;;;1.90;;
2161;SDS011;1087;50.226;8.682;2023-04-24T05:50:18;2.63;;;2.43;;
2161;SDS011;1087;50.226;8.682;2023-04-24T05:52:44;3.40;;;2.90;;
2161;SDS011;1087;50.226;8.682;2023-04-24T05:55:09;2.60;;;2.40;;
2161;SDS011;1087;50.226;8.682;2023-04-24T05:57:35;3.50;;;3.17;;
2161;SDS011;1087;50.226;8.682;2023-04-24T06:00:00;3.70;;;3.40;;
2161;SDS011;1087;50.226;8.682;2023-04-24T06:02:26;3.60;;;3.27;;
2161;SDS011;1087;50.226;8.682;2023-04-24T06:04:52;4.17;;;3.57;;
2161;SDS011;1087;50.226;8.682;2023-04-24T06:07:18;4.80;;;3.90;;
2161;SDS011;1087;50.226;8.682;2023-04-24T06:09:43;5.13;;;3.33;;
2161;SDS011;1087;50.226;8.682;2023-04-24T06:12:09;3.30;;;3.07;;
2161;SDS011;1087;50.226;8.682;2023-04-24T06:14:34;4.93;;;3.90;;
2161;SDS011;1087;50.226;8.682;2023-04-24T06:17:00;4.30;;;3.70;;
2161;SDS011;1087;50.226;8.682;2023-04-24T06:19:25;3.33;;;3.03;;
2161;SDS011;1087;50.226;8.682;2023-04-24T06:21:51;6.10;;;4.13;;
2161;SDS011;1087;50.226;8.682;2023-04-24T06:24:16;4.50;;;4.10;;
2161;SDS011;1087;50.226;8.682;2023-04-24T06:26:42;4.00;;;3.60;;
2161;SDS011;1087;50.226;8.682;2023-04-24T06:29:07;6.23;;;4.07;;
2161;SDS011;1087;50.226;8.682;2023-04-24T06:31:33;4.83;;;4.43;;
2161;SDS011;1087;50.226;8.682;2023-04-24T06:34:01;5.37;;;4.17;;
2161;SDS011;1087;50.226;8.682;2023-04-24T06:36:27;4.90;;;4.50;;
2161;SDS011;1087;50.226;8.682;2023-04-24T06:38:53;4.83;;;4.40;;
2161;SDS011;1087;50.226;8.682;2023-04-24T06:41:19;6.60;;;4.23;;
2161;SDS011;1087;50.226;8.682;2023-04-24T06:43:44;4.27;;;3.87;;
2161;SDS011;1087;50.226;8.682;2023-04-24T06:46:10;4.33;;;3.93;;
2161;SDS011;1087;50.226;8.682;2023-04-24T06:48:35;5.00;;;4.33;;
2161;SDS011;1087;50.226;8.682;2023-04-24T06:51:01;4.70;;;4.30;;
2161;SDS011;1087;50.226;8.682;2023-04-24T06:53:26;5.00;;;4.60;;
2161;SDS011;1087;50.226;8.682;2023-04-24T06:55:52;5.23;;;4.30;;
2161;SDS011;1087;50.226;8.682;2023-04-24T06:58:18;5.40;;;4.90;;
2161;SDS011;1087;50.226;8.682;2023-04-24T07:00:43;7.20;;;4.97;;
2161;SDS011;1087;50.226;8.682;2023-04-24T07:03:08;5.17;;;4.77;;
2161;SDS011;1087;50.226;8.682;2023-04-24T07:05:34;4.90;;;4.50;;
2161;SDS011;1087;50.226;8.682;2023-04-24T07:08:00;4.27;;;3.97;;
2161;SDS011;1087;50.226;8.682;2023-04-24T07:10:26;5.27;;;4.87;;
2161;SDS011;1087;50.226;8.682;2023-04-24T07:12:53;5.27;;;4.70;;
2161;SDS011;1087;50.226;8.682;2023-04-24T07:15:20;5.63;;;4.73;;
2161;SDS011;1087;50.226;8.682;2023-04-24T07:17:46;5.30;;;4.80;;
2161;SDS011;1087;50.226;8.682;2023-04-24T07:20:12;5.47;;;4.67;;
2161;SDS011;1087;50.226;8.682;2023-04-24T07:22:39;5.03;;;4.63;;
2161;SDS011;1087;50.226;8.682;2023-04-24T07:25:05;5.90;;;5.37;;
2161;SDS011;1087;50.226;8.682;2023-04-24T07:27:31;4.50;;;4.10;;
2161;SDS011;1087;50.226;8.682;2023-04-24T07:29:57;4.13;;;3.83;;
2161;SDS011;1087;50.226;8.682;2023-04-24T07:32:23;4.13;;;3.73;;
2161;SDS011;1087;50.226;8.682;2023-04-24T07:34:48;4.03;;;3.73;;
2161;SDS011;1087;50.226;8.682;2023-04-24T07:37:14;4.03;;;3.63;;
2161;SDS011;1087;50.226;8.682;2023-04-24T07:39:40;5.33;;;4.93;;
2161;SDS011;1087;50.226;8.682;2023-04-24T07:42:05;3.50;;;3.30;;
2161;SDS011;1087;50.226;8.682;2023-04-24T07:44:31;3.80;;;3.43;;
2161;SDS011;1087;50.226;8.682;2023-04-24T07:46:57;4.30;;;3.37;;
2161;SDS011;1087;50.226;8.682;2023-04-24T07:49:23;4.30;;;3.90;;
2161;SDS011;1087;50.226;8.682;2023-04-24T07:51:49;3.27;;;3.07;;
2161;SDS011;1087;50.226;8.682;2023-04-24T07:54:14;4.47;;;4.07;;
2161;SDS011;1087;50.226;8.682;2023-04-24T07:56:40;4.27;;;3.97;;
2161;SDS011;1087;50.226;8.682;2023-04-24T07:59:07;4.93;;;3.70;;
2161;SDS011;1087;50.226;8.682;2023-04-24T08:01:35;3.20;;;3.00;;
2161;SDS011;1087;50.226;8.682;2023-04-24T08:04:00;3.10;;;2.90;;
2161;SDS011;1087;50.226;8.682;2023-04-24T08:06:26;3.97;;;3.67;;
2161;SDS011;1087;50.226;8.682;2023-04-24T08:08:55;3.60;;;3.30;;
2161;SDS011;1087;50.226;8.682;2023-04-24T08:11:21;3.70;;;3.40;;
2161;SDS011;1087;50.226;8.682;2023-04-24T08:13:47;4.33;;;4.03;;
2161;SDS011;1087;50.226;8.682;2023-04-24T08:16:12;5.53;;;3.37;;
2161;SDS011;1087;50.226;8.682;2023-04-24T08:18:38;3.03;;;2.83;;
2161;SDS011;1087;50.226;8.682;2023-04-24T08:21:03;4.00;;;3.70;;
2161;SDS011;1087;50.226;8.682;2023-04-24T08:23:29;4.03;;;3.63;;
2161;SDS011;1087;50.226;8.682;2023-04-24T08:25:55;4.07;;;3.67;;
2161;SDS011;1087;50.226;8.682;2023-04-24T08:28:20;4.00;;;3.70;;
2161;SDS011;1087;50.226;8.682;2023-04-24T08:30:46;3.70;;;3.40;;
2161;SDS011;1087;50.226;8.682;2023-04-24T08:33:13;4.17;;;3.87;;
2161;SDS011;1087;50.226;8.682;2023-04-24T08:35:39;3.97;;;3.23;;
2161;SDS011;1087;50.226;8.682;2023-04-24T08:38:05;4.07;;;3.70;;
2161;SDS011;1087;50.226;8.682;2023-04-24T08:40:30;4.80;;;3.60;;
2161;SDS011;1087;50.226;8.682;2023-04-24T08:42:59;5.03;;;3.50;;
2161;SDS011;1087;50.226;8.682;2023-04-24T08:45:24;3.70;;;3.43;;
2161;SDS011;1087;50.226;8.682;2023-04-24T08:47:51;5.10;;;3.80;;
2161;SDS011;1087;50.226;8.682;2023-04-24T08:50:18;4.27;;;3.23;;
2161;SDS011;1087;50.226;8.682;2023-04-24T08:52:44;3.90;;;3.60;;
2161;SDS011;1087;50.226;8.682;2023-04-24T08:55:09;3.40;;;3.10;;
2161;SDS011;1087;50.226;8.682;2023-04-24T08:57:36;3.50;;;2.77;;
2161;SDS011;1087;50.226;8.682;2023-04-24T09:00:03;3.03;;;2.73;;
2161;SDS011;1087;50.226;8.682;2023-04-24T09:02:29;3.60;;;3.20;;
2161;SDS011;1087;50.226;8.682;2023-04-24T09:04:56;4.20;;;3.20;;
2161;SDS011;1087;50.226;8.682;2023-04-24T09:07:23;3.67;;;3.27;;
2161;SDS011;1087;50.226;8.682;2023-04-24T09:09:50;4.40;;;3.37;;
2161;SDS011;1087;50.226;8.682;2023-04-24T09:12:17;3.57;;;3.27;;
2161;SDS011;1087;50.226;8.682;2023-04-24T09:14:44;3.30;;;3.00;;
2161;SDS011;1087;50.226;8.682;2023-04-24T09:17:10;3.30;;;3.00;;
2161;SDS011;1087;50.226;8.682;2023-04-24T09:19:36;3.70;;;2.87;;
2161;SDS011;1087;50.226;8.682;2023-04-24T09:22:05;3.70;;;3.33;;
2161;SDS011;1087;50.226;8.682;2023-04-24T09:24:34;3.93;;;3.63;;
2161;SDS011;1087;50.226;8.682;2023-04-24T09:27:00;4.00;;;3.70;;
2161;SDS011;1087;50.226;8.682;2023-04-24T09:29:27;3.90;;;3.47;;
2161;SDS011;1087;50.226;8.682;2023-04-24T09:31:52;3.30;;;3.00;;
2161;SDS011;1087;50.226;8.682;2023-04-24T09:34:22;4.33;;;4.03;;
2161;SDS011;1087;50.226;8.682;2023-04-24T09:36:48;3.33;;;3.03;;
2161;SDS011;1087;50.226;8.682;2023-04-24T09:39:15;4.00;;;3.70;;
2161;SDS011;1087;50.226;8.682;2023-04-24T09:41:54;3.80;;;3.50;;
2161;SDS011;1087;50.226;8.682;2023-04-24T09:44:23;2.90;;;2.70;;
2161;SDS011;1087;50.226;8.682;2023-04-24T09:46:57;3.63;;;3.00;;
2161;SDS011;1087;50.226;8.682;2023-04-24T09:49:30;4.10;;;2.90;;
2161;SDS011;1087;50.226;8.682;2023-04-24T09:52:08;3.70;;;3.40;;
2161;SDS011;1087;50.226;8.682;2023-04-24T09:54:35;2.63;;;2.43;;
2161;SDS011;1087;50.226;8.682;2023-04-24T09:57:03;3.37;;;3.07;;
2161;SDS011;1087;50.226;8.682;2023-04-24T09:59:29;2.87;;;2.60;;
2161;SDS011;1087;50.226;8.682;2023-04-24T10:01:55;3.80;;;3.10;;
2161;SDS011;1087;50.226;8.682;2023-04-24T10:04:26;2.93;;;2.73;;
2161;SDS011;1087;50.226;8.682;2023-04-24T10:06:53;4.27;;;2.90;;
2161;SDS011;1087;50.226;8.682;2023-04-24T10:09:21;3.40;;;3.10;;
2161;SDS011;1087;50.226;8.682;2023-04-24T10:11:49;3.40;;;2.90;;
2161;SDS011;1087;50.226;8.682;2023-04-24T10:14:19;3.90;;;3.33;;
2161;SDS011;1087;50.226;8.682;2023-04-24T10:16:47;5.30;;;4.20;;
2161;SDS011;1087;50.226;8.682;2023-04-24T10:19:13;4.70;;;3.60;;
2161;SDS011;1087;50.226;8.682;2023-04-24T10:21:40;3.30;;;3.10;;
2161;SDS011;1087;50.226;8.682;2023-04-24T10:24:11;3.83;;;3.53;;
2161;SDS011;1087;50.226;8.682;2023-04-24T10:26:41;3.13;;;2.87;;
2161;SDS011;1087;50.226;8.682;2023-04-24T10:29:07;3.80;;;3.37;;
2161;SDS011;1087;50.226;8.682;2023-04-24T10:31:37;4.90;;;2.90;;
2161;SDS011;1087;50.226;8.682;2023-04-24T10:34:03;3.13;;;2.83;;
2161;SDS011;1087;50.226;8.682;2023-04-24T10:36:30;3.03;;;2.77;;
2161;SDS011;1087;50.226;8.682;2023-04-24T10:38:57;3.87;;;3.40;;
2161;SDS011;1087;50.226;8.682;2023-04-24T10:41:26;4.40;;;3.87;;
2161;SDS011;1087;50.226;8.682;2023-04-24T10:44:04;4.40;;;2.90;;
2161;SDS011;1087;50.226;8.682;2023-04-24T10:46:30;4.37;;;3.80;;
2161;SDS011;1087;50.226;8.682;2023-04-24T10:48:56;3.30;;;3.00;;
2161;SDS011;1087;50.226;8.682;2023-04-24T10:51:23;4.07;;;3.60;;
2161;SDS011;1087;50.226;8.682;2023-04-24T10:54:29;3.50;;;2.83;;
2161;SDS011;1087;50.226;8.682;2023-04-24T10:59:47;4.23;;;3.83;;
2161;SDS011;1087;50.226;8.682;2023-04-24T11:02:14;3.80;;;3.43;;
2161;SDS011;1087;50.226;8.682;2023-04-24T11:04:40;3.10;;;2.80;;
2161;SDS011;1087;50.226;8.682;2023-04-24T11:07:08;3.83;;;3.43;;
2161;SDS011;1087;50.226;8.682;2023-04-24T11:09:34;3.30;;;2.53;;
2161;SDS011;1087;50.226;8.682;2023-04-24T11:12:05;2.90;;;2.70;;
2161;SDS011;1087;50.226;8.682;2023-04-24T11:17:30;2.50;;;2.20;;
2161;SDS011;1087;50.226;8.682;2023-04-24T11:20:02;2.67;;;2.47;;
2161;SDS011;1087;50.226;8.682;2023-04-24T11:22:32;2.97;;;2.23;;
2161;SDS011;1087;50.226;8.682;2023-04-24T11:25:01;2.20;;;2.00;;
2161;SDS011;1087;50.226;8.682;2023-04-24T11:27:28;2.40;;;2.20;;
2161;SDS011;1087;50.226;8.682;2023-04-24T11:37:37;2.10;;;1.90;;
2161;SDS011;1087;50.226;8.682;2023-04-24T11:40:05;2.10;;;1.90;;
2161;SDS011;1087;50.226;8.682;2023-04-24T11:42:44;2.33;;;2.13;;
2161;SDS011;1087;50.226;8.682;2023-04-24T11:45:14;2.20;;;1.87;;
2161;SDS011;1087;50.226;8.682;2023-04-24T11:47:46;1.90;;;1.80;;
2161;SDS011;1087;50.226;8.682;2023-04-24T11:50:16;2.20;;;2.00;;
2161;SDS011;1087;50.226;8.682;2023-04-24T11:52:43;2.90;;;1.73;;
2161;SDS011;1087;50.226;8.682;2023-04-24T11:57:45;2.17;;;2.00;;
2161;SDS011;1087;50.226;8.682;2023-04-24T12:00:19;2.67;;;2.10;;
2161;SDS011;1087;50.226;8.682;2023-04-24T12:02:46;2.03;;;1.83;;
2161;SDS011;1087;50.226;8.682;2023-04-24T12:05:22;3.63;;;2.77;;
2161;SDS011;1087;50.226;8.682;2023-04-24T12:07:49;1.90;;;1.80;;
2161;SDS011;1087;50.226;8.682;2023-04-24T12:10:19;2.10;;;1.80;;
2161;SDS011;1087;50.226;8.682;2023-04-24T12:12:48;2.17;;;1.70;;
2161;SDS011;1087;50.226;8.682;2023-04-24T12:15:16;2.13;;;1.93;;
2161;SDS011;1087;50.226;8.682;2023-04-24T12:17:43;4.00;;;2.40;;
2161;SDS011;1087;50.226;8.682;2023-04-24T12:20:09;2.43;;;1.90;;
2161;SDS011;1087;50.226;8.682;2023-04-24T12:25:16;2.93;;;2.20;;
2161;SDS011;1087;50.226;8.682;2023-04-24T12:27:43;2.17;;;1.97;;
2161;SDS011;1087;50.226;8.682;2023-04-24T12:30:11;3.60;;;3.30;;
2161;SDS011;1087;50.226;8.682;2023-04-24T12:32:42;3.90;;;2.40;;
2161;SDS011;1087;50.226;8.682;2023-04-24T12:35:12;2.47;;;2.23;;
2161;SDS011;1087;50.226;8.682;2023-04-24T12:37:38;7.10;;;3.00;;
2161;SDS011;1087;50.226;8.682;2023-04-24T12:40:09;2.50;;;2.30;;
2161;SDS011;1087;50.226;8.682;2023-04-24T12:42:41;2.57;;;1.90;;
2161;SDS011;1087;50.226;8.682;2023-04-24T12:45:11;2.40;;;2.20;;
2161;SDS011;1087;50.226;8.682;2023-04-24T12:47:37;2.10;;;1.90;;
2161;SDS011;1087;50.226;8.682;2023-04-24T12:50:03;2.70;;;2.50;;
2161;SDS011;1087;50.226;8.682;2023-04-24T12:52:29;3.00;;;2.70;;
2161;SDS011;1087;50.226;8.682;2023-04-24T12:54:56;3.10;;;2.80;;
2161;SDS011;1087;50.226;8.682;2023-04-24T12:57:23;5.10;;;2.53;;
2161;SDS011;1087;50.226;8.682;2023-04-24T12:59:49;3.60;;;3.27;;
2161;SDS011;1087;50.226;8.682;2023-04-24T13:02:15;6.43;;;3.70;;
2161;SDS011;1087;50.226;8.682;2023-04-24T13:04:46;3.83;;;3.27;;
2161;SDS011;1087;50.226;8.682;2023-04-24T13:07:12;3.10;;;2.80;;
2161;SDS011;1087;50.226;8.682;2023-04-24T13:09:40;3.53;;;3.10;;
2161;SDS011;1087;50.226;8.682;2023-04-24T13:12:07;3.70;;;3.40;;
2161;SDS011;1087;50.226;8.682;2023-04-24T13:14:33;3.97;;;3.57;;
2161;SDS011;1087;50.226;8.682;2023-04-24T13:16:59;4.00;;;3.47;;
2161;SDS011;1087;50.226;8.682;2023-04-24T13:19:25;4.33;;;3.57;;
2161;SDS011;1087;50.226;8.682;2023-04-24T13:21:52;4.30;;;3.90;;
2161;SDS011;1087;50.226;8.682;2023-04-24T13:24:19;3.63;;;3.33;;
2161;SDS011;1087;50.226;8.682;2023-04-24T13:26:45;3.90;;;3.60;;
2161;SDS011;1087;50.226;8.682;2023-04-24T13:29:10;3.87;;;3.57;;
2161;SDS011;1087;50.226;8.682;2023-04-24T13:31:36;5.13;;;3.80;;
2161;SDS011;1087;50.226;8.682;2023-04-24T13:34:02;4.03;;;3.47;;
2161;SDS011;1087;50.226;8.682;2023-04-24T13:36:29;3.53;;;3.23;;
2161;SDS011;1087;50.226;8.682;2023-04-24T13:38:56;5.30;;;4.80;;
2161;SDS011;1087;50.226;8.682;2023-04-24T13:41:22;4.73;;;4.33;;
2161;SDS011;1087;50.226;8.682;2023-04-24T13:43:47;4.10;;;3.80;;
2161;SDS011;1087;50.226;8.682;2023-04-24T13:46:13;3.53;;;3.23;;
2161;SDS011;1087;50.226;8.682;2023-04-24T13:48:38;4.23;;;3.80;;
2161;SDS011;1087;50.226;8.682;2023-04-24T13:51:04;3.70;;;3.40;;
2161;SDS011;1087;50.226;8.682;2023-04-24T13:53:29;4.13;;;3.70;;
2161;SDS011;1087;50.226;8.682;2023-04-24T13:55:55;5.20;;;4.70;;
2161;SDS011;1087;50.226;8.682;2023-04-24T13:58:20;5.03;;;4.27;;
2161;SDS011;1087;50.226;8.682;2023-04-24T14:00:46;4.50;;;4.10;;
2161;SDS011;1087;50.226;8.682;2023-04-24T14:03:11;5.00;;;4.53;;
2161;SDS011;1087;50.226;8.682;2023-04-24T14:05:37;5.07;;;4.50;;
2161;SDS011;1087;50.226;8.682;2023-04-24T14:08:02;4.23;;;3.67;;
2161;SDS011;1087;50.226;8.682;2023-04-24T14:10:29;5.03;;;4.53;;
2161;SDS011;1087;50.226;8.682;2023-04-24T14:12:55;4.20;;;3.53;;
2161;SDS011;1087;50.226;8.682;2023-04-24T14:15:20;6.30;;;5.30;;
2161;SDS011;1087;50.226;8.682;2023-04-24T14:17:46;5.10;;;4.20;;
2161;SDS011;1087;50.226;8.682;2023-04-24T14:20:12;3.87;;;3.57;;
2161;SDS011;1087;50.226;8.682;2023-04-24T14:22:38;4.40;;;4.00;;
2161;SDS011;1087;50.226;8.682;2023-04-24T14:25:04;6.03;;;4.20;;
2161;SDS011;1087;50.226;8.682;2023-04-24T14:27:31;6.10;;;4.10;;
2161;SDS011;1087;50.226;8.682;2023-04-24T14:29:57;6.50;;;4.60;;
2161;SDS011;1087;50.226;8.682;2023-04-24T14:32:22;4.43;;;3.90;;
2161;SDS011;1087;50.226;8.682;2023-04-24T14:34:48;4.30;;;3.90;;
2161;SDS011;1087;50.226;8.682;2023-04-24T14:37:14;4.07;;;3.63;;
2161;SDS011;1087;50.226;8.682;2023-04-24T14:39:40;5.23;;;3.87;;
2161;SDS011;1087;50.226;8.682;2023-04-24T14:42:05;5.23;;;4.50;;
2161;SDS011;1087;50.226;8.682;2023-04-24T14:44:31;4.13;;;3.70;;
2161;SDS011;1087;50.226;8.682;2023-04-24T14:46:57;6.10;;;3.77;;
2161;SDS011;1087;50.226;8.682;2023-04-24T14:49:23;4.47;;;3.37;;
2161;SDS011;1087;50.226;8.682;2023-04-24T14:51:49;3.83;;;3.53;;
2161;SDS011;1087;50.226;8.682;2023-04-24T14:54:14;6.73;;;3.97;;
2161;SDS011;1087;50.226;8.682;2023-04-24T14:56:40;5.23;;;4.00;;
2161;SDS011;1087;50.226;8.682;2023-04-24T14:59:07;5.20;;;4.10;;
2161;SDS011;1087;50.226;8.682;2023-04-24T15:01:33;5.40;;;4.07;;
2161;SDS011;1087;50.226;8.682;2023-04-24T15:03:58;5.17;;;4.47;;
2161;SDS011;1087;50.226;8.682;2023-04-24T15:06:24;5.10;;;4.60;;
2161;SDS011;1087;50.226;8.682;2023-04-24T15:08:50;4.37;;;3.97;;
2161;SDS011;1087;50.226;8.682;2023-04-24T15:11:15;5.07;;;4.40;;
2161;SDS011;1087;50.226;8.682;2023-04-24T15:13:41;5.43;;;4.17;;
2161;SDS011;1087;50.226;8.682;2023-04-24T15:16:06;4.30;;;4.00;;
2161;SDS011;1087;50.226;8.682;2023-04-24T15:18:33;7.27;;;3.90;;
2161;SDS011;1087;50.226;8.682;2023-04-24T15:20:58;4.40;;;4.10;;
2161;SDS011;1087;50.226;8.682;2023-04-24T15:23:24;4.73;;;3.93;;
2161;SDS011;1087;50.226;8.682;2023-04-24T15:25:49;4.70;;;3.57;;
2161;SDS011;1087;50.226;8.682;2023-04-24T15:28:15;5.63;;;4.17;;
2161;SDS011;1087;50.226;8.682;2023-04-24T15:30:42;5.20;;;3.73;;